KFHR/FHR METAR and TAF weather

Enter ICAO airport designator
Station Type Date Time Source
KFHR METAR 2021/09/28 04:13 UTC NOAA

KFHR 280413Z AUTO 00000KT 2 1/2SM BR FEW070 11/09 A2979 RMK AO2 T01060094 TSNO $


Station Type Date Time Source
KFHR Decoded METAR 2021/09/28 04:13 UTC NOAA

FRIDAY HARBOR AIRPORT, WA, United States (KFHR) 48-31N 123-02W 32M
Sep 28, 2021 - 12:13 AM EDT / 2021.09.28 0413 UTC
Wind: Calm:0
Visibility: 2 1/2 mile(s):0
Sky conditions: mostly clear
Weather: mist
Temperature: 51.1 F (10.6 C)
Dew Point: 48.9 F (9.4 C)
Relative Humidity: 92%
Pressure (altimeter): 29.79 in. Hg (1008 hPa)
ob: KFHR 280413Z AUTO 00000KT 2 1/2SM BR FEW070 11/09 A2979 RMK AO2 T01060094 TSNO
cycle: 4

Station Type Date Time Source
KFHR TAF UTC NOAA

Error!

Example: see airport list